Time;durP1;ratioP1;P1;durP2;ratioP2;P2;SDS_P1;SDS_P2;PMS_P1;PMS_P2;Temp;Humidity;BMP_temperature;BMP_pressure;BME280_temperature;BME280_humidity;BME280_pressure;Samples;Min_cycle;Max_cycle;Signal;HPM_P1;HPM_P2
2022/11/21 05:00:24;;;;;;;1.30;1.20;;;5.40;99.90;;;;;;6008063;23;20419;-75
2022/11/21 05:02:51;;;;;;;2.40;1.10;;;5.40;99.90;;;;;;4927851;29;20458;-74
2022/11/21 05:05:18;;;;;;;6.20;1.70;;;5.40;99.90;;;;;;4927661;29;20966;-75
2022/11/21 05:07:45;;;;;;;2.40;1.10;;;5.40;99.90;;;;;;4927837;29;20465;-75
2022/11/21 05:10:12;;;;;;;1.10;1.10;;;5.30;99.90;;;;;;4927848;29;20466;-75
2022/11/21 05:15:24;;;;;;;1.90;1.40;;;5.30;99.90;;;;;;4927868;29;20550;-75
2022/11/21 05:17:51;;;;;;;3.03;1.60;;;5.40;99.90;;;;;;4927676;29;20494;-75
2022/11/21 05:20:18;;;;;;;1.90;1.40;;;5.30;99.90;;;;;;4927884;29;20470;-75
2022/11/21 05:22:48;;;;;;;1.37;1.27;;;5.40;99.90;;;;;;4927043;29;20613;-77
2022/11/21 05:25:15;;;;;;;1.37;1.27;;;5.40;99.90;;;;;;4927714;29;20482;-77
2022/11/21 05:27:44;;;;;;;1.70;1.40;;;5.40;99.90;;;;;;4927685;29;20758;-77
2022/11/21 05:30:13;;;;;;;1.50;1.40;;;5.40;99.90;;;;;;4928189;29;20576;-78
2022/11/21 05:32:43;;;;;;;2.33;1.30;;;5.40;99.90;;;;;;4927325;29;20872;-77
2022/11/21 05:35:09;;;;;;;1.50;1.40;;;5.40;99.90;;;;;;4928840;29;20469;-75
2022/11/21 05:37:36;;;;;;;1.63;1.40;;;5.50;99.90;;;;;;4928122;29;21002;-77
2022/11/21 05:40:04;;;;;;;2.07;1.80;;;5.50;99.90;;;;;;4928098;29;20463;-77
2022/11/21 05:45:14;;;;;;;1.77;1.43;;;5.50;99.90;;;;;;4932099;29;20550;-76
2022/11/21 05:47:43;;;;;;;3.00;1.80;;;5.60;99.90;;;;;;4931675;29;20454;-76
2022/11/21 05:50:09;;;;;;;2.30;1.80;;;5.60;99.90;;;;;;4943108;29;20476;-76
2022/11/21 05:52:36;;;;;;;1.87;1.63;;;5.60;99.90;;;;;;4949816;29;20976;-75
2022/11/21 05:55:03;;;;;;;5.40;1.90;;;5.50;99.90;;;;;;4950639;29;20987;-75
2022/11/21 05:57:31;;;;;;;2.90;1.97;;;5.50;99.90;;;;;;4950562;29;20500;-67
2022/11/21 05:59:57;;;;;;;3.53;2.13;;;5.50;99.90;;;;;;4950525;29;20461;-67
2022/11/21 06:05:10;;;;;;;3.50;2.23;;;5.60;99.90;;;;;;4950109;29;20460;-68
2022/11/21 06:07:37;;;;;;;3.60;1.97;;;5.60;99.90;;;;;;4949972;28;20453;-67
2022/11/21 06:10:04;;;;;;;6.10;2.50;;;5.60;99.90;;;;;;4950957;29;20991;-77
2022/11/21 06:12:31;;;;;;;3.13;2.10;;;5.70;99.90;;;;;;4950702;29;20477;-77
2022/11/21 06:14:58;;;;;;;4.13;2.10;;;5.70;99.90;;;;;;4950897;29;20882;-77
2022/11/21 06:17:25;;;;;;;4.13;2.20;;;5.70;99.90;;;;;;4953325;29;20501;-77
2022/11/21 06:19:51;;;;;;;7.40;2.57;;;5.80;99.90;;;;;;4952167;29;20461;-77
2022/11/21 06:22:19;;;;;;;6.80;2.60;;;5.80;99.90;;;;;;4951161;29;20478;-77
2022/11/21 06:24:46;;;;;;;5.43;2.73;;;5.80;99.90;;;;;;4950666;29;20475;-77
2022/11/21 06:27:13;;;;;;;6.40;2.43;;;5.90;99.90;;;;;;4950084;29;20465;-76
2022/11/21 06:29:40;;;;;;;4.93;2.53;;;5.90;99.90;;;;;;4950176;29;20480;-76
2022/11/21 06:32:07;;;;;;;6.67;3.77;;;6.00;99.90;;;;;;4949097;29;20828;-76
2022/11/21 06:34:33;;;;;;;9.03;3.27;;;6.00;99.90;;;;;;4950098;29;20469;-75
2022/11/21 06:37:00;;;;;;;4.60;2.90;;;6.00;99.90;;;;;;4932541;29;20969;-77
2022/11/21 06:39:28;;;;;;;4.90;2.70;;;6.10;99.90;;;;;;4930322;29;20832;-76
2022/11/21 06:41:55;;;;;;;6.70;3.07;;;6.10;99.90;;;;;;4929506;29;20490;-76
2022/11/21 06:44:25;;;;;;;4.97;2.80;;;6.00;99.90;;;;;;4930548;29;20820;-75
2022/11/21 06:46:52;;;;;;;6.53;2.93;;;6.00;99.90;;;;;;4930291;29;20476;-76
2022/11/21 06:49:18;;;;;;;7.23;3.40;;;6.00;99.90;;;;;;4930342;29;20466;-76
2022/11/21 06:51:45;;;;;;;5.23;3.20;;;6.00;99.90;;;;;;4929491;29;20505;-76
2022/11/21 06:54:12;;;;;;;4.07;3.67;;;6.10;99.90;;;;;;4929265;29;20471;-76
2022/11/21 06:56:40;;;;;;;7.83;2.87;;;6.10;99.90;;;;;;4930115;29;20825;-76
2022/11/21 06:59:07;;;;;;;5.40;2.90;;;6.10;99.90;;;;;;4930391;29;20502;-77
2022/11/21 07:01:34;;;;;;;5.20;3.13;;;6.10;99.90;;;;;;4929913;29;20874;-76
2022/11/21 07:04:00;;;;;;;9.07;3.77;;;6.10;99.90;;;;;;4929846;29;20557;-76
2022/11/21 07:06:27;;;;;;;3.60;2.40;;;6.10;99.90;;;;;;4930090;29;20476;-76
2022/11/21 07:08:54;;;;;;;7.07;2.80;;;6.10;99.90;;;;;;4930144;29;20470;-76
2022/11/21 07:11:21;;;;;;;4.83;2.80;;;6.10;99.90;;;;;;4929822;29;20482;-76
2022/11/21 07:13:48;;;;;;;6.63;3.47;;;6.00;99.90;;;;;;4929373;29;20974;-76
2022/11/21 07:16:15;;;;;;;6.80;3.07;;;6.00;99.90;;;;;;4929957;29;20836;-76
2022/11/21 07:18:43;;;;;;;6.77;3.03;;;6.10;99.90;;;;;;4929806;29;20853;-78
2022/11/21 07:21:10;;;;;;;10.83;3.17;;;6.10;99.90;;;;;;4930004;29;20482;-77
2022/11/21 07:23:37;;;;;;;11.00;3.60;;;6.10;99.90;;;;;;4929289;29;20462;-76
2022/11/21 07:26:06;;;;;;;5.93;3.33;;;6.10;99.90;;;;;;4929821;29;20470;-76
2022/11/21 07:28:34;;;;;;;7.33;3.10;;;6.20;99.90;;;;;;4929644;29;20465;-76
2022/11/21 07:31:03;;;;;;;7.50;3.50;;;6.20;99.90;;;;;;4929012;29;20482;-76
2022/11/21 07:33:30;;;;;;;7.87;3.20;;;6.20;99.90;;;;;;4928280;29;20466;-76
2022/11/21 07:35:57;;;;;;;4.80;2.97;;;6.10;99.90;;;;;;4929208;29;20470;-76
2022/11/21 07:38:24;;;;;;;8.93;2.80;;;6.10;99.90;;;;;;4928596;29;21124;-76
2022/11/21 07:40:51;;;;;;;7.33;3.70;;;6.10;99.90;;;;;;4928919;29;20483;-76
2022/11/21 07:43:18;;;;;;;6.93;2.83;;;6.10;99.90;;;;;;4928342;29;20458;-76
2022/11/21 07:45:45;;;;;;;8.87;4.20;;;6.00;99.90;;;;;;4929175;29;20462;-76
2022/11/21 07:48:13;;;;;;;10.53;3.40;;;6.00;99.90;;;;;;4929090;29;20653;-76
2022/11/21 07:50:40;;;;;;;10.43;2.90;;;6.00;99.90;;;;;;4928316;29;21020;-76
2022/11/21 07:53:10;;;;;;;7.90;3.30;;;6.10;99.90;;;;;;4927639;29;20955;-77
2022/11/21 07:55:36;;;;;;;10.30;3.10;;;6.10;99.90;;;;;;4928694;29;20530;-76
2022/11/21 07:58:05;;;;;;;5.20;3.00;;;6.10;99.90;;;;;;4928873;29;20490;-76
2022/11/21 08:00:35;;;;;;;5.93;3.03;;;6.10;99.90;;;;;;4928706;29;20482;-76
2022/11/21 08:03:03;;;;;;;7.07;2.53;;;6.10;99.90;;;;;;4928138;29;20911;-76
2022/11/21 08:05:31;;;;;;;8.33;2.37;;;6.10;99.90;;;;;;4927961;29;20459;-76
2022/11/21 08:07:58;;;;;;;6.67;3.20;;;6.10;99.90;;;;;;4928504;29;20462;-76
2022/11/21 08:10:25;;;;;;;7.77;2.70;;;6.10;99.90;;;;;;4928497;29;20491;-76
2022/11/21 08:12:52;;;;;;;5.97;2.90;;;6.10;99.90;;;;;;4928372;29;20465;-77
2022/11/21 08:15:18;;;;;;;5.80;2.83;;;6.10;99.90;;;;;;4928232;29;20468;-77
2022/11/21 08:17:45;;;;;;;15.07;3.03;;;6.10;99.90;;;;;;4928294;29;20767;-77
2022/11/21 08:20:12;;;;;;;4.27;2.70;;;6.10;99.90;;;;;;4928576;29;20459;-77
2022/11/21 08:22:40;;;;;;;5.50;2.60;;;6.10;99.90;;;;;;4927928;29;20966;-77
2022/11/21 08:25:09;;;;;;;3.60;2.33;;;6.20;99.90;;;;;;4928164;29;20993;-77
2022/11/21 08:27:37;;;;;;;8.93;2.50;;;6.10;99.90;;;;;;4928121;29;20466;-77
2022/11/21 08:30:05;;;;;;;4.37;2.37;;;6.20;99.90;;;;;;4928454;29;20526;-77
2022/11/21 08:32:32;;;;;;;3.83;2.33;;;6.20;99.90;;;;;;4927588;29;20857;-77
2022/11/21 08:34:59;;;;;;;4.30;2.27;;;6.20;99.90;;;;;;4928761;29;20473;-77
2022/11/21 08:37:27;;;;;;;2.57;2.17;;;6.20;99.90;;;;;;4928457;29;20466;-77
2022/11/21 08:39:55;;;;;;;5.83;2.47;;;6.10;99.90;;;;;;4928372;29;20847;-77
2022/11/21 08:42:22;;;;;;;2.30;2.10;;;6.10;99.90;;;;;;4927677;29;20496;-77
2022/11/21 08:44:48;;;;;;;3.50;2.67;;;6.20;99.90;;;;;;4928420;29;20466;-77
2022/11/21 08:47:15;;;;;;;4.27;2.63;;;6.20;99.90;;;;;;4928680;29;20790;-77
2022/11/21 08:49:42;;;;;;;5.37;3.17;;;6.20;99.90;;;;;;4939954;29;21546;-77
2022/11/21 08:52:11;;;;;;;4.20;2.10;;;6.30;99.90;;;;;;4948845;29;20490;-77
2022/11/21 08:54:38;;;;;;;2.63;2.30;;;6.30;99.90;;;;;;4949376;29;20833;-77
2022/11/21 08:57:06;;;;;;;5.93;2.13;;;6.30;99.90;;;;;;4949295;29;20488;-77
2022/11/21 08:59:33;;;;;;;5.00;3.20;;;6.40;99.90;;;;;;4949035;29;20497;-78
2022/11/21 09:02:00;;;;;;;6.63;2.93;;;6.50;99.90;;;;;;4946442;29;20501;-78
2022/11/21 09:04:27;;;;;;;4.00;2.60;;;6.50;99.90;;;;;;4947383;29;20853;-77
2022/11/21 09:06:53;;;;;;;8.60;2.30;;;6.50;99.90;;;;;;4947069;29;20835;-77
2022/11/21 09:09:20;;;;;;;6.83;2.40;;;6.50;99.90;;;;;;4947091;29;20770;-77
2022/11/21 09:11:47;;;;;;;6.97;3.00;;;6.50;99.90;;;;;;4946711;29;20485;-78
2022/11/21 09:19:43;;;;;;;8.97;2.50;;;6.60;99.90;;;;;;4950846;29;20503;-78
2022/11/21 09:22:12;;;;;;;4.67;2.30;;;6.60;99.90;;;;;;4950331;29;20489;-77
2022/11/21 09:24:39;;;;;;;3.73;2.53;;;6.60;99.90;;;;;;4950212;29;20969;-77
2022/11/21 09:27:05;;;;;;;3.93;2.43;;;6.60;99.90;;;;;;4950527;29;20461;-78
2022/11/21 09:29:33;;;;;;;8.27;3.17;;;6.70;99.90;;;;;;4950613;29;20465;-78
2022/11/21 09:32:00;;;;;;;4.00;2.53;;;6.80;99.90;;;;;;4950325;28;20572;-77
2022/11/21 09:34:27;;;;;;;12.17;2.60;;;6.80;99.90;;;;;;4950652;29;20976;-77
2022/11/21 09:36:55;;;;;;;6.80;2.77;;;6.90;99.90;;;;;;4950620;29;20501;-79
2022/11/21 09:39:22;;;;;;;4.87;2.10;;;7.00;99.90;;;;;;4952380;29;21229;-78
2022/11/21 09:42:01;;;;;;;8.10;2.63;;;7.00;99.90;;;;;;4951733;29;21099;-76
2022/11/21 09:44:55;;;;;;;7.43;2.33;;;7.10;99.90;;;;;;4952645;29;21088;-77
2022/11/21 09:47:27;;;;;;;4.10;2.10;;;7.00;99.90;;;;;;4952406;29;20467;-77
2022/11/21 09:50:00;;;;;;;10.17;3.27;;;7.00;99.90;;;;;;4952338;29;20456;-77
2022/11/21 09:52:35;;;;;;;6.67;2.53;;;7.10;99.90;;;;;;4951924;29;20485;-77
2022/11/21 09:55:06;;;;;;;5.20;2.70;;;7.10;99.90;;;;;;4952024;29;21121;-77
2022/11/21 09:57:35;;;;;;;3.30;2.40;;;7.00;99.90;;;;;;4952135;29;20465;-77
2022/11/21 10:00:13;;;;;;;8.40;2.70;;;7.10;99.90;;;;;;4952170;29;20496;-77
2022/11/21 10:02:40;;;;;;;5.77;2.93;;;7.10;99.90;;;;;;4951781;29;20475;-77
2022/11/21 10:05:13;;;;;;;4.73;2.53;;;7.10;99.90;;;;;;4951959;29;20465;-77
2022/11/21 10:07:40;;;;;;;7.47;2.60;;;7.20;99.90;;;;;;4951958;29;20457;-77
2022/11/21 10:10:33;;;;;;;9.60;2.83;;;7.10;99.90;;;;;;4951950;29;20461;-77
2022/11/21 10:13:15;;;;;;;7.67;2.97;;;7.20;99.90;;;;;;4951803;29;20475;-77
2022/11/21 10:15:53;;;;;;;4.63;2.20;;;7.20;99.90;;;;;;4952117;29;20449;-77
2022/11/21 10:18:48;;;;;;;8.17;2.57;;;7.30;99.90;;;;;;4951548;29;20976;-77
2022/11/21 10:21:31;;;;;;;5.43;2.60;;;7.30;99.90;;;;;;4946615;29;20489;-77
2022/11/21 10:24:14;;;;;;;11.23;2.53;;;7.30;99.90;;;;;;4950696;28;20464;-77
2022/11/21 10:26:47;;;;;;;6.73;2.10;;;7.30;99.90;;;;;;4951692;28;20461;-77
2022/11/21 10:29:19;;;;;;;6.33;2.63;;;7.30;99.90;;;;;;4950521;28;20484;-77
2022/11/21 10:31:49;;;;;;;5.57;2.90;;;7.40;99.90;;;;;;4951167;29;20850;-77
2022/11/21 10:34:19;;;;;;;7.80;3.47;;;7.50;99.90;;;;;;4951414;29;21077;-77
2022/11/21 10:36:51;;;;;;;8.57;3.30;;;7.50;99.90;;;;;;4951746;29;20450;-77
2022/11/21 10:39:20;;;;;;;3.50;2.50;;;7.70;99.90;;;;;;4951697;29;20497;-77
2022/11/21 10:41:53;;;;;;;3.43;2.00;;;7.70;99.90;;;;;;4950715;28;20508;-77
2022/11/21 10:47:26;;;;;;;3.43;2.10;;;7.80;99.90;;;;;;4932181;29;20465;-79
2022/11/21 10:49:57;;;;;;;6.63;2.53;;;7.90;99.90;;;;;;4932417;29;20439;-78
2022/11/21 10:52:27;;;;;;;6.57;2.30;;;8.00;99.90;;;;;;4931736;29;20482;-77
2022/11/21 10:55:07;;;;;;;9.87;3.00;;;8.10;99.90;;;;;;4932491;29;20468;-77
2022/11/21 10:57:40;;;;;;;6.07;2.30;;;8.30;99.90;;;;;;4932042;29;20473;-77
2022/11/21 11:00:20;;;;;;;7.50;2.20;;;8.20;99.90;;;;;;4932092;29;20478;-78
2022/11/21 11:03:06;;;;;;;8.77;2.23;;;8.20;99.90;;;;;;4930827;29;20438;-78
2022/11/21 11:05:35;;;;;;;3.00;1.80;;;8.20;99.90;;;;;;4931776;29;20465;-77
2022/11/21 11:08:05;;;;;;;6.13;2.60;;;8.20;99.90;;;;;;4931591;29;20458;-78
2022/11/21 11:10:34;;;;;;;7.70;2.40;;;8.20;99.90;;;;;;4931625;29;20474;-78
2022/11/21 11:16:04;;;;;;;6.27;2.77;;;8.20;99.90;;;;;;4930249;29;20490;-65
2022/11/21 11:18:35;;;;;;;7.63;2.40;;;8.10;99.90;;;;;;4929784;29;20481;-65
2022/11/21 11:21:17;;;;;;;3.57;1.60;;;8.00;99.90;;;;;;4929522;29;20486;-66
2022/11/21 11:23:44;;;;;;;4.47;1.80;;;8.00;99.90;;;;;;4929840;29;20556;-76
2022/11/21 11:26:21;;;;;;;5.90;1.97;;;7.80;99.90;;;;;;4930224;29;20462;-77
2022/11/21 11:28:48;;;;;;;7.03;1.97;;;7.80;99.90;;;;;;4930427;29;20447;-77
2022/11/21 11:31:16;;;;;;;4.73;1.90;;;7.80;99.90;;;;;;4930210;29;20843;-77
2022/11/21 11:33:51;;;;;;;10.23;2.57;;;7.80;99.90;;;;;;4929536;29;20458;-77
2022/11/21 11:36:30;;;;;;;11.83;2.20;;;7.80;99.90;;;;;;4930574;29;20990;-77
2022/11/21 11:38:59;;;;;;;5.83;2.67;;;7.70;99.90;;;;;;4930470;29;20482;-76
2022/11/21 11:47:49;;;;;;;5.00;2.03;;;7.60;99.90;;;;;;4930920;29;20418;-78
2022/11/21 11:50:22;;;;;;;8.27;2.20;;;7.70;99.90;;;;;;4930479;29;20494;-77
2022/11/21 11:52:57;;;;;;;9.03;2.10;;;7.90;99.90;;;;;;4930006;29;20596;-77
2022/11/21 11:55:28;;;;;;;5.70;2.00;;;8.20;99.90;;;;;;4930272;29;20435;-76
2022/11/21 11:57:59;;;;;;;6.00;1.83;;;8.40;99.90;;;;;;4929781;29;20463;-78
2022/11/21 12:00:37;;;;;;;5.90;2.20;;;8.60;99.90;;;;;;4929563;29;20510;-79
2022/11/21 12:03:10;;;;;;;4.30;1.67;;;8.70;99.90;;;;;;4928727;29;20446;-79
2022/11/21 12:05:51;;;;;;;7.10;2.23;;;8.90;99.90;;;;;;4929433;29;20457;-80
2022/11/21 12:08:24;;;;;;;3.77;1.77;;;9.20;99.90;;;;;;4930133;29;20555;-79
2022/11/21 12:13:42;;;;;;;8.63;1.80;;;9.30;99.90;;;;;;4928187;29;20533;-77
2022/11/21 12:16:12;;;;;;;5.33;2.10;;;9.40;99.90;;;;;;4929169;29;20463;-77
2022/11/21 12:18:49;;;;;;;3.83;1.73;;;9.40;99.90;;;;;;4928970;29;20462;-77
2022/11/21 12:21:18;;;;;;;4.67;1.93;;;9.50;99.90;;;;;;4929324;29;20481;-77
2022/11/21 12:23:47;;;;;;;2.87;1.60;;;9.60;99.90;;;;;;4927801;29;20463;-78
2022/11/21 12:26:34;;;;;;;4.37;1.67;;;9.60;99.90;;;;;;4928238;29;20466;-78
2022/11/21 12:29:21;;;;;;;5.43;1.50;;;9.70;99.90;;;;;;4927359;29;20950;-78
2022/11/21 12:32:16;;;;;;;5.30;1.40;;;9.80;99.90;;;;;;4926756;29;20486;-79
2022/11/21 12:35:03;;;;;;;3.13;1.53;;;10.00;99.90;;;;;;4927610;29;20621;-79
2022/11/21 12:37:42;;;;;;;4.30;2.20;;;10.00;99.90;;;;;;4927383;29;20455;-79
2022/11/21 12:40:24;;;;;;;4.27;1.87;;;10.30;99.90;;;;;;4927407;29;20498;-79
2022/11/21 12:43:06;;;;;;;5.10;2.13;;;10.30;99.90;;;;;;4926663;29;20473;-79
2022/11/21 12:45:35;;;;;;;1.87;1.40;;;10.40;99.90;;;;;;4927309;29;20820;-78
2022/11/21 12:55:00;;;;;;;3.33;2.40;;;10.30;99.90;;;;;;4926928;29;21002;-79
2022/11/21 12:57:39;;;;;;;8.30;2.40;;;10.30;99.90;;;;;;4928917;29;20466;-80
2022/11/21 13:00:15;;;;;;;4.80;1.67;;;10.20;99.90;;;;;;4928462;29;20487;-78
2022/11/21 13:03:03;;;;;;;7.23;2.30;;;10.20;99.90;;;;;;4928487;29;20447;-78
2022/11/21 13:05:32;;;;;;;1.77;1.50;;;10.10;99.90;;;;;;4928680;29;20986;-78
2022/11/21 13:08:07;;;;;;;4.30;1.83;;;10.10;99.90;;;;;;4929273;29;20466;-80
2022/11/21 13:10:37;;;;;;;3.70;1.97;;;10.00;99.90;;;;;;4928455;29;20478;-79
2022/11/21 13:13:14;;;;;;;3.03;2.10;;;9.90;99.90;;;;;;4928272;29;20469;-79
2022/11/21 13:15:57;;;;;;;3.73;2.20;;;9.90;99.90;;;;;;4929142;29;20453;-80
2022/11/21 13:18:30;;;;;;;2.87;1.90;;;9.80;99.90;;;;;;4928304;29;20581;-79
2022/11/21 13:20:57;;;;;;;4.07;2.00;;;9.90;99.90;;;;;;4928673;29;20565;-78
2022/11/21 13:23:38;;;;;;;6.50;1.80;;;9.80;99.90;;;;;;4927898;29;20473;-79
2022/11/21 13:26:37;;;;;;;6.40;1.90;;;9.90;99.90;;;;;;4928743;29;20834;-78
2022/11/21 13:29:11;;;;;;;4.50;1.80;;;9.80;99.90;;;;;;4921639;29;20472;-79
2022/11/21 13:31:39;;;;;;;5.00;2.30;;;9.80;99.90;;;;;;4927831;29;21016;-78
2022/11/21 13:34:34;;;;;;;3.97;1.60;;;9.70;99.90;;;;;;4927762;29;20967;-78
2022/11/21 13:37:01;;;;;;;4.47;2.40;;;9.70;99.90;;;;;;4928092;29;20462;-78
2022/11/21 13:39:30;;;;;;;5.20;2.00;;;9.70;99.90;;;;;;4928488;29;20549;-78
2022/11/21 13:45:19;;;;;;;3.80;1.90;;;9.70;99.90;;;;;;4928355;29;21250;-78
2022/11/21 13:48:05;;;;;;;3.83;1.67;;;9.70;99.90;;;;;;4928022;29;20978;-78
2022/11/21 13:51:08;;;;;;;7.20;1.83;;;9.80;99.90;;;;;;4928436;29;20482;-79
2022/11/21 13:53:53;;;;;;;5.53;2.37;;;9.70;99.90;;;;;;4869063;29;20490;-78
2022/11/21 13:56:31;;;;;;;5.60;2.60;;;9.80;99.90;;;;;;4922228;29;20470;-79
2022/11/21 13:59:09;;;;;;;3.43;1.70;;;9.80;99.90;;;;;;4928825;29;20553;-79
2022/11/21 14:01:58;;;;;;;4.83;2.00;;;9.70;99.90;;;;;;4927980;29;20489;-80
2022/11/21 14:04:54;;;;;;;3.37;1.87;;;9.80;99.90;;;;;;4931775;29;20927;-79
2022/11/21 14:07:29;;;;;;;5.07;2.30;;;9.80;99.90;;;;;;4928918;29;20484;-75
2022/11/21 14:09:58;;;;;;;4.07;1.90;;;9.80;99.90;;;;;;4931556;29;20446;-76
2022/11/21 14:12:29;;;;;;;5.20;2.93;;;9.80;99.90;;;;;;4930933;29;20471;-75
2022/11/21 14:15:18;;;;;;;6.93;2.30;;;9.80;99.90;;;;;;4931448;29;20439;-76
2022/11/21 14:17:48;;;;;;;7.00;2.40;;;9.80;99.90;;;;;;4932336;29;20485;-76
2022/11/21 14:20:19;;;;;;;3.83;2.20;;;9.70;99.90;;;;;;4930931;29;20491;-75
2022/11/21 14:22:57;;;;;;;5.67;2.23;;;9.70;99.90;;;;;;4928477;29;20462;-75
2022/11/21 14:25:33;;;;;;;7.63;2.27;;;9.70;99.90;;;;;;4929716;29;20470;-75
2022/11/21 14:28:02;;;;;;;8.63;2.37;;;9.60;99.90;;;;;;4930076;29;20625;-76
2022/11/21 14:30:31;;;;;;;5.27;2.40;;;9.60;99.90;;;;;;4929715;29;21117;-79
2022/11/21 14:33:31;;;;;;;6.63;2.87;;;9.50;99.90;;;;;;4929394;29;20466;-75
2022/11/21 14:36:05;;;;;;;7.87;3.10;;;9.50;99.90;;;;;;4929654;29;20770;-76
2022/11/21 14:38:36;;;;;;;8.60;3.27;;;9.50;99.90;;;;;;4930395;29;20458;-75
2022/11/21 14:41:28;;;;;;;5.17;2.93;;;9.40;99.90;;;;;;4930328;29;20509;-76
2022/11/21 14:44:15;;;;;;;6.57;3.10;;;9.40;99.90;;;;;;4915506;29;20513;-75
2022/11/21 14:46:44;;;;;;;4.47;2.13;;;9.40;99.90;;;;;;4930036;29;20923;-75
2022/11/21 14:49:28;;;;;;;4.00;1.90;;;9.40;99.90;;;;;;4930073;29;20977;-75
2022/11/21 14:52:16;;;;;;;6.23;1.93;;;9.40;99.90;;;;;;4929593;29;20482;-75
2022/11/21 14:54:49;;;;;;;4.70;2.07;;;9.30;99.90;;;;;;4930205;29;20533;-76
2022/11/21 14:57:26;;;;;;;2.77;1.50;;;9.30;99.90;;;;;;4929941;29;20462;-77
2022/11/21 14:59:54;;;;;;;8.13;2.03;;;9.20;99.90;;;;;;4929472;29;20501;-75
2022/11/21 15:02:26;;;;;;;4.60;2.30;;;9.20;99.90;;;;;;4929074;29;20501;-75
2022/11/21 15:05:00;;;;;;;5.77;2.17;;;9.10;99.90;;;;;;4929748;29;20462;-75
2022/11/21 15:07:28;;;;;;;3.57;2.10;;;9.10;99.90;;;;;;4929855;29;20484;-75
2022/11/21 15:10:03;;;;;;;5.73;1.77;;;9.00;99.90;;;;;;4929351;29;20544;-74
2022/11/21 15:12:37;;;;;;;5.13;1.83;;;8.90;99.90;;;;;;4929923;29;20803;-75
2022/11/21 15:15:08;;;;;;;3.50;1.87;;;8.90;99.90;;;;;;4929031;29;20462;-74
2022/11/21 15:17:44;;;;;;;3.63;2.00;;;8.80;99.90;;;;;;4930222;29;20529;-75
2022/11/21 15:20:20;;;;;;;5.10;2.30;;;8.80;99.90;;;;;;4930159;29;20500;-75
2022/11/21 15:22:48;;;;;;;6.03;2.80;;;8.70;99.90;;;;;;4929029;29;20458;-75
2022/11/21 15:25:18;;;;;;;9.43;3.33;;;8.60;99.90;;;;;;4930194;29;20470;-76
2022/11/21 15:27:45;;;;;;;4.60;3.30;;;8.60;99.90;;;;;;4929868;29;20458;-75
2022/11/21 15:30:25;;;;;;;3.43;2.97;;;8.50;99.90;;;;;;4929832;29;20450;-75
2022/11/21 15:33:11;;;;;;;8.60;2.50;;;8.50;99.90;;;;;;4929179;29;20450;-75
2022/11/21 15:35:49;;;;;;;4.87;2.47;;;8.50;99.90;;;;;;4929558;29;21266;-74
2022/11/21 15:38:19;;;;;;;11.20;4.10;;;8.50;99.90;;;;;;4929809;29;20537;-75
2022/11/21 15:41:10;;;;;;;15.13;6.90;;;8.50;99.90;;;;;;4929758;29;20512;-75
2022/11/21 15:43:40;;;;;;;14.07;5.80;;;8.40;99.90;;;;;;4928943;29;20451;-75
2022/11/21 15:46:16;;;;;;;9.93;5.10;;;8.40;99.90;;;;;;4929823;29;20807;-75
2022/11/21 15:48:45;;;;;;;7.60;4.90;;;8.30;99.90;;;;;;4929495;29;20498;-78
2022/11/21 15:51:14;;;;;;;9.10;4.00;;;8.20;99.90;;;;;;4929802;29;20569;-75
2022/11/21 15:53:41;;;;;;;7.47;3.93;;;8.20;99.90;;;;;;4929166;29;20474;-75
2022/11/21 15:56:11;;;;;;;4.60;3.77;;;8.20;99.90;;;;;;4929211;29;20469;-75
2022/11/21 15:58:41;;;;;;;5.47;3.20;;;8.10;99.90;;;;;;4929692;29;20451;-75
2022/11/21 16:01:16;;;;;;;7.80;3.07;;;8.00;99.90;;;;;;4930093;29;20497;-76
2022/11/21 16:03:44;;;;;;;5.43;3.37;;;7.90;99.90;;;;;;4929855;29;20456;-75
2022/11/21 16:06:11;;;;;;;7.80;3.40;;;7.90;99.90;;;;;;4930128;29;20838;-75
2022/11/21 16:08:42;;;;;;;4.37;2.90;;;7.90;99.90;;;;;;4929968;29;20967;-75
2022/11/21 16:11:19;;;;;;;6.83;3.10;;;7.80;99.90;;;;;;4929580;29;20478;-78
2022/11/21 16:13:50;;;;;;;5.53;3.53;;;7.80;99.90;;;;;;4929168;29;20472;-74
2022/11/21 16:16:17;;;;;;;7.10;5.73;;;7.80;99.90;;;;;;4929147;29;20451;-75
2022/11/21 16:18:44;;;;;;;14.07;9.90;;;7.80;99.90;;;;;;4929244;29;20466;-74
2022/11/21 16:21:10;;;;;;;14.67;9.80;;;7.80;99.90;;;;;;4929160;29;20528;-74
2022/11/21 16:23:39;;;;;;;14.63;8.20;;;7.70;99.90;;;;;;4929109;29;20477;-77
2022/11/21 16:26:07;;;;;;;9.10;5.97;;;7.70;99.90;;;;;;4928661;29;21251;-75
2022/11/21 16:28:34;;;;;;;10.13;4.43;;;7.60;99.90;;;;;;4929710;29;20462;-74
2022/11/21 16:31:01;;;;;;;6.50;5.17;;;7.60;99.90;;;;;;4929577;29;20478;-74
2022/11/21 16:33:29;;;;;;;9.70;6.37;;;7.50;99.90;;;;;;4928910;29;20473;-74
2022/11/21 16:35:56;;;;;;;10.53;5.70;;;7.50;99.90;;;;;;4929034;29;20986;-74
2022/11/21 16:38:25;;;;;;;7.93;4.60;;;7.40;99.90;;;;;;4928556;29;20453;-75
2022/11/21 16:40:57;;;;;;;6.47;5.00;;;7.40;99.90;;;;;;4927294;29;20502;-74
2022/11/21 16:43:25;;;;;;;8.43;5.47;;;7.30;99.90;;;;;;4926494;29;20458;-74
2022/11/21 16:45:52;;;;;;;7.33;5.03;;;7.20;99.90;;;;;;4927697;29;20473;-74
2022/11/21 16:48:19;;;;;;;7.93;5.70;;;7.10;99.90;;;;;;4927471;29;20917;-76
2022/11/21 16:50:46;;;;;;;9.37;6.40;;;7.10;99.90;;;;;;4928096;29;20482;-74
2022/11/21 16:53:13;;;;;;;9.53;6.33;;;7.10;99.90;;;;;;4928353;29;20454;-73
2022/11/21 16:55:40;;;;;;;13.83;6.70;;;7.00;99.90;;;;;;4936071;29;20984;-73
2022/11/21 16:58:08;;;;;;;6.80;5.30;;;7.00;99.90;;;;;;4947525;29;20468;-76
2022/11/21 17:00:35;;;;;;;5.60;4.33;;;6.90;99.90;;;;;;4947362;29;20512;-74
2022/11/21 17:03:02;;;;;;;8.47;4.67;;;6.90;99.90;;;;;;4946257;29;20465;-75
2022/11/21 17:05:29;;;;;;;6.70;4.27;;;6.80;99.90;;;;;;4947343;29;20472;-74
2022/11/21 17:07:57;;;;;;;13.60;7.23;;;6.80;99.90;;;;;;4947188;29;20462;-74
2022/11/21 17:10:24;;;;;;;15.87;8.40;;;6.80;99.90;;;;;;4946847;29;20463;-78
2022/11/21 17:12:50;;;;;;;17.37;12.47;;;6.70;99.90;;;;;;4946466;29;20465;-74
2022/11/21 17:15:18;;;;;;;14.47;9.40;;;6.70;99.90;;;;;;4946915;29;20466;-73
2022/11/21 17:17:45;;;;;;;14.10;9.00;;;6.70;99.90;;;;;;4946589;29;20457;-73
2022/11/21 17:20:12;;;;;;;15.17;9.80;;;6.70;99.90;;;;;;4946384;29;20954;-76
2022/11/21 17:22:39;;;;;;;22.80;14.00;;;6.60;99.90;;;;;;4946169;29;20981;-75
2022/11/21 17:25:06;;;;;;;19.63;13.43;;;6.60;99.90;;;;;;4946509;29;20462;-75
2022/11/21 17:27:33;;;;;;;22.00;12.67;;;6.50;99.90;;;;;;4946367;28;20469;-75
2022/11/21 17:30:00;;;;;;;14.30;9.90;;;6.40;99.90;;;;;;4946791;29;20758;-78
2022/11/21 17:32:28;;;;;;;11.93;8.07;;;6.30;99.90;;;;;;4946270;29;20484;-75
2022/11/21 17:34:55;;;;;;;11.33;8.30;;;6.30;99.90;;;;;;4946297;29;20954;-75
2022/11/21 17:37:22;;;;;;;11.63;6.63;;;6.30;99.90;;;;;;4946714;28;20877;-74
2022/11/21 17:39:49;;;;;;;11.10;8.00;;;6.20;99.90;;;;;;4950401;29;20465;-75
2022/11/21 17:42:16;;;;;;;9.37;6.70;;;6.30;99.90;;;;;;4949628;29;20531;-75
2022/11/21 17:44:46;;;;;;;8.47;5.00;;;6.20;99.90;;;;;;4949957;29;20465;-76
2022/11/21 17:47:13;;;;;;;8.63;3.97;;;6.20;99.90;;;;;;4950236;29;20832;-76
2022/11/21 17:49:41;;;;;;;5.53;3.40;;;6.10;99.90;;;;;;4949591;29;20473;-76
2022/11/21 17:52:08;;;;;;;4.93;3.60;;;6.10;99.90;;;;;;4948824;28;20477;-76
2022/11/21 17:54:34;;;;;;;9.37;4.00;;;6.10;99.90;;;;;;4949743;29;20980;-76
2022/11/21 17:57:02;;;;;;;5.60;2.87;;;6.10;99.90;;;;;;4949670;28;20465;-76
2022/11/21 17:59:28;;;;;;;8.80;3.27;;;6.00;99.90;;;;;;4949956;29;20457;-76
2022/11/21 18:01:55;;;;;;;4.57;3.50;;;6.00;99.90;;;;;;4949136;29;21018;-76
2022/11/21 18:04:23;;;;;;;6.40;4.13;;;6.00;99.90;;;;;;4950072;29;20460;-76
2022/11/21 18:06:51;;;;;;;6.67;3.40;;;6.00;99.90;;;;;;4950222;29;20664;-76
2022/11/21 18:09:18;;;;;;;5.70;3.40;;;6.00;99.90;;;;;;4949813;28;20964;-76
2022/11/21 18:11:45;;;;;;;8.10;5.00;;;5.90;99.90;;;;;;4949004;29;20476;-75
2022/11/21 18:14:13;;;;;;;7.03;4.40;;;5.90;99.90;;;;;;4949404;29;20480;-76
2022/11/21 18:16:41;;;;;;;9.07;4.10;;;5.90;99.90;;;;;;4950267;29;20457;-75
2022/11/21 18:19:12;;;;;;;12.50;4.50;;;5.80;99.90;;;;;;4950223;29;20465;-76
2022/11/21 18:21:39;;;;;;;10.20;3.70;;;5.90;99.90;;;;;;4949143;29;20505;-77
2022/11/21 18:24:08;;;;;;;5.73;3.60;;;5.80;99.90;;;;;;4949907;29;20915;-76
2022/11/21 18:26:36;;;;;;;3.40;3.10;;;5.90;99.90;;;;;;4950128;29;20471;-76
2022/11/21 18:29:05;;;;;;;5.93;3.70;;;5.90;99.90;;;;;;4950276;29;20483;-76
2022/11/21 18:31:32;;;;;;;6.50;3.30;;;5.90;99.90;;;;;;4950366;29;20477;-77
2022/11/21 18:34:01;;;;;;;8.77;4.50;;;6.00;99.90;;;;;;4952392;29;20836;-77
2022/11/21 18:36:30;;;;;;;5.90;4.30;;;6.00;99.90;;;;;;4952733;29;20485;-77
2022/11/21 18:38:57;;;;;;;8.70;4.50;;;6.00;99.90;;;;;;4952169;29;20466;-77
2022/11/21 18:41:27;;;;;;;9.00;4.17;;;6.00;99.90;;;;;;4952501;29;20620;-76
2022/11/21 18:43:55;;;;;;;9.50;4.20;;;6.00;99.90;;;;;;4951773;29;20464;-79
2022/11/21 18:46:23;;;;;;;9.33;5.17;;;6.00;99.90;;;;;;4950606;29;21032;-80
2022/11/21 18:48:51;;;;;;;6.60;4.67;;;6.00;99.90;;;;;;4951144;28;20487;-76
2022/11/21 18:51:19;;;;;;;8.83;4.07;;;6.00;99.90;;;;;;4951008;29;20524;-77
2022/11/21 18:53:51;;;;;;;10.63;4.93;;;6.00;99.90;;;;;;4949932;29;21074;-76